Terminal Aerodrome Forecast
Issued by NWS

Home | Current Version | Previous Version | Text Only | Print | Product List | Glossary On
Versions: 1 2 3 4 5 6 7 8 9 10 11 12
278
FTUS44 KBMX 041720
TAFMGM
TAF
KMGM 041720Z 0418/0518 10012KT 6SM BR BKN008 OVC110
     FM050000 VRB03KT 3SM -RA BR OVC004
     FM051500 05005KT 2SM BR OVC002=

USA.gov is the U.S. government's official web portal to all federal, state and local government web resources and services.